sensor_id;sensor_type;location;lat;lon;timestamp;temperature;humidity
65396;HTU21D;52004;45.136;39.010;2023-04-06T00:02:23;12.59;64.10
65396;HTU21D;52004;45.136;39.010;2023-04-06T00:04:49;12.58;64.12
65396;HTU21D;52004;45.136;39.010;2023-04-06T00:07:15;12.58;64.14
65396;HTU21D;52004;45.136;39.010;2023-04-06T00:09:41;12.56;64.18
65396;HTU21D;52004;45.136;39.010;2023-04-06T00:12:07;12.59;64.23
65396;HTU21D;52004;45.136;39.010;2023-04-06T00:14:33;12.59;64.25
65396;HTU21D;52004;45.136;39.010;2023-04-06T00:16:58;12.57;64.25
65396;HTU21D;52004;45.136;39.010;2023-04-06T00:19:25;12.55;64.26
65396;HTU21D;52004;45.136;39.010;2023-04-06T00:21:50;12.52;64.34
65396;HTU21D;52004;45.136;39.010;2023-04-06T00:24:16;12.51;64.40
65396;HTU21D;52004;45.136;39.010;2023-04-06T00:26:42;12.51;64.47
65396;HTU21D;52004;45.136;39.010;2023-04-06T00:29:08;12.53;64.47
65396;HTU21D;52004;45.136;39.010;2023-04-06T00:31:35;12.53;64.46
65396;HTU21D;52004;45.136;39.010;2023-04-06T00:34:00;12.52;64.46
65396;HTU21D;52004;45.136;39.010;2023-04-06T00:36:26;12.53;64.48
65396;HTU21D;52004;45.136;39.010;2023-04-06T00:38:52;12.52;64.50
65396;HTU21D;52004;45.136;39.010;2023-04-06T00:41:19;12.52;64.50
65396;HTU21D;52004;45.136;39.010;2023-04-06T00:43:46;12.51;64.54
65396;HTU21D;52004;45.136;39.010;2023-04-06T00:46:12;12.48;64.59
65396;HTU21D;52004;45.136;39.010;2023-04-06T00:48:38;12.48;64.66
65396;HTU21D;52004;45.136;39.010;2023-04-06T00:51:04;12.48;64.68
65396;HTU21D;52004;45.136;39.010;2023-04-06T00:53:31;12.50;64.69
65396;HTU21D;52004;45.136;39.010;2023-04-06T00:55:59;12.49;64.71
65396;HTU21D;52004;45.136;39.010;2023-04-06T00:58:26;12.51;64.68
65396;HTU21D;52004;45.136;39.010;2023-04-06T01:01:00;12.51;64.69
65396;HTU21D;52004;45.136;39.010;2023-04-06T01:03:26;12.50;64.69
65396;HTU21D;52004;45.136;39.010;2023-04-06T01:05:52;12.51;64.71
65396;HTU21D;52004;45.136;39.010;2023-04-06T01:08:29;12.52;64.72
65396;HTU21D;52004;45.136;39.010;2023-04-06T01:11:10;12.52;64.75
65396;HTU21D;52004;45.136;39.010;2023-04-06T01:13:36;12.52;64.76
65396;HTU21D;52004;45.136;39.010;2023-04-06T01:16:06;12.52;64.76
65396;HTU21D;52004;45.136;39.010;2023-04-06T01:18:55;12.50;64.77
65396;HTU21D;52004;45.136;39.010;2023-04-06T01:21:28;12.47;64.82
65396;HTU21D;52004;45.136;39.010;2023-04-06T01:24:18;12.46;64.92
65396;HTU21D;52004;45.136;39.010;2023-04-06T01:27:07;12.46;64.94
65396;HTU21D;52004;45.136;39.010;2023-04-06T01:30:03;12.46;64.97
65396;HTU21D;52004;45.136;39.010;2023-04-06T01:33:01;12.46;64.98
65396;HTU21D;52004;45.136;39.010;2023-04-06T01:35:40;12.47;65.00
65396;HTU21D;52004;45.136;39.010;2023-04-06T01:38:13;12.49;65.01
65396;HTU21D;52004;45.136;39.010;2023-04-06T01:40:39;12.51;64.99
65396;HTU21D;52004;45.136;39.010;2023-04-06T01:43:05;12.52;65.01
65396;HTU21D;52004;45.136;39.010;2023-04-06T01:45:53;12.55;64.98
65396;HTU21D;52004;45.136;39.010;2023-04-06T01:48:21;12.56;64.98
65396;HTU21D;52004;45.136;39.010;2023-04-06T01:50:48;12.57;64.97
65396;HTU21D;52004;45.136;39.010;2023-04-06T01:53:19;12.55;64.99
65396;HTU21D;52004;45.136;39.010;2023-04-06T01:55:46;12.56;65.00
65396;HTU21D;52004;45.136;39.010;2023-04-06T01:58:21;12.52;65.04
65396;HTU21D;52004;45.136;39.010;2023-04-06T02:00:47;12.55;65.06
65396;HTU21D;52004;45.136;39.010;2023-04-06T02:03:13;12.52;65.06
65396;HTU21D;52004;45.136;39.010;2023-04-06T02:05:41;12.53;65.07
65396;HTU21D;52004;45.136;39.010;2023-04-06T02:08:25;12.52;65.08
65396;HTU21D;52004;45.136;39.010;2023-04-06T02:10:51;12.52;65.09
65396;HTU21D;52004;45.136;39.010;2023-04-06T02:13:26;12.51;65.09
65396;HTU21D;52004;45.136;39.010;2023-04-06T02:15:53;12.50;65.14
65396;HTU21D;52004;45.136;39.010;2023-04-06T02:18:19;12.50;65.17
65396;HTU21D;52004;45.136;39.010;2023-04-06T02:20:45;12.49;65.17
65396;HTU21D;52004;45.136;39.010;2023-04-06T02:23:12;12.50;65.19
65396;HTU21D;52004;45.136;39.010;2023-04-06T02:25:38;12.50;65.18
65396;HTU21D;52004;45.136;39.010;2023-04-06T02:28:04;12.49;65.20
65396;HTU21D;52004;45.136;39.010;2023-04-06T02:30:30;12.49;65.21
65396;HTU21D;52004;45.136;39.010;2023-04-06T02:33:01;12.48;65.24
65396;HTU21D;52004;45.136;39.010;2023-04-06T02:35:29;12.48;65.23
65396;HTU21D;52004;45.136;39.010;2023-04-06T02:37:56;12.48;65.23
65396;HTU21D;52004;45.136;39.010;2023-04-06T02:40:23;12.48;65.22
65396;HTU21D;52004;45.136;39.010;2023-04-06T02:42:49;12.47;65.24
65396;HTU21D;52004;45.136;39.010;2023-04-06T02:45:20;12.47;65.25
65396;HTU21D;52004;45.136;39.010;2023-04-06T02:47:47;12.48;65.27
65396;HTU21D;52004;45.136;39.010;2023-04-06T02:50:15;12.45;65.27
65396;HTU21D;52004;45.136;39.010;2023-04-06T02:52:49;12.43;65.28
65396;HTU21D;52004;45.136;39.010;2023-04-06T02:55:15;12.41;65.35
65396;HTU21D;52004;45.136;39.010;2023-04-06T02:57:41;12.38;65.41
65396;HTU21D;52004;45.136;39.010;2023-04-06T03:00:07;12.35;65.49
65396;HTU21D;52004;45.136;39.010;2023-04-06T03:02:38;12.34;65.54
65396;HTU21D;52004;45.136;39.010;2023-04-06T03:05:08;12.37;65.55
65396;HTU21D;52004;45.136;39.010;2023-04-06T03:07:39;12.38;65.53
65396;HTU21D;52004;45.136;39.010;2023-04-06T03:10:09;12.38;65.57
65396;HTU21D;52004;45.136;39.010;2023-04-06T03:12:36;12.38;65.58
65396;HTU21D;52004;45.136;39.010;2023-04-06T03:15:15;12.42;65.55
65396;HTU21D;52004;45.136;39.010;2023-04-06T03:17:45;12.43;65.54
65396;HTU21D;52004;45.136;39.010;2023-04-06T03:20:25;12.43;65.53
65396;HTU21D;52004;45.136;39.010;2023-04-06T03:22:50;12.45;65.52
65396;HTU21D;52004;45.136;39.010;2023-04-06T03:25:20;12.45;65.54
65396;HTU21D;52004;45.136;39.010;2023-04-06T03:27:46;12.46;65.59
65396;HTU21D;52004;45.136;39.010;2023-04-06T03:30:16;12.47;65.62
65396;HTU21D;52004;45.136;39.010;2023-04-06T03:32:43;12.47;65.64
65396;HTU21D;52004;45.136;39.010;2023-04-06T03:35:09;12.46;65.64
65396;HTU21D;52004;45.136;39.010;2023-04-06T03:37:35;12.48;65.66
65396;HTU21D;52004;45.136;39.010;2023-04-06T03:40:03;12.50;65.67
65396;HTU21D;52004;45.136;39.010;2023-04-06T03:42:29;12.50;65.66
65396;HTU21D;52004;45.136;39.010;2023-04-06T03:45:03;12.51;65.67
65396;HTU21D;52004;45.136;39.010;2023-04-06T03:47:30;12.53;65.67
65396;HTU21D;52004;45.136;39.010;2023-04-06T03:50:00;12.52;65.68
65396;HTU21D;52004;45.136;39.010;2023-04-06T03:52:28;12.51;65.72
65396;HTU21D;52004;45.136;39.010;2023-04-06T03:54:54;12.51;65.78
65396;HTU21D;52004;45.136;39.010;2023-04-06T03:57:20;12.51;65.82
65396;HTU21D;52004;45.136;39.010;2023-04-06T03:59:46;12.53;65.83
65396;HTU21D;52004;45.136;39.010;2023-04-06T04:02:12;12.53;65.84
65396;HTU21D;52004;45.136;39.010;2023-04-06T04:04:38;12.56;65.85
65396;HTU21D;52004;45.136;39.010;2023-04-06T04:07:04;12.56;65.86
65396;HTU21D;52004;45.136;39.010;2023-04-06T04:09:30;12.59;65.85
65396;HTU21D;52004;45.136;39.010;2023-04-06T04:11:56;12.58;65.87
65396;HTU21D;52004;45.136;39.010;2023-04-06T04:14:22;12.59;65.88
65396;HTU21D;52004;45.136;39.010;2023-04-06T04:16:48;12.59;65.90
65396;HTU21D;52004;45.136;39.010;2023-04-06T04:19:13;12.58;65.88
65396;HTU21D;52004;45.136;39.010;2023-04-06T04:21:43;12.57;65.97
65396;HTU21D;52004;45.136;39.010;2023-04-06T04:24:13;12.59;66.04
65396;HTU21D;52004;45.136;39.010;2023-04-06T04:26:39;12.59;66.05
65396;HTU21D;52004;45.136;39.010;2023-04-06T04:29:06;12.59;66.07
65396;HTU21D;52004;45.136;39.010;2023-04-06T04:31:34;12.61;66.08
65396;HTU21D;52004;45.136;39.010;2023-04-06T04:34:03;12.61;66.10
65396;HTU21D;52004;45.136;39.010;2023-04-06T04:36:32;12.58;66.11
65396;HTU21D;52004;45.136;39.010;2023-04-06T04:39:02;12.57;66.22
65396;HTU21D;52004;45.136;39.010;2023-04-06T04:41:35;12.58;66.26
65396;HTU21D;52004;45.136;39.010;2023-04-06T04:44:06;12.62;66.30
65396;HTU21D;52004;45.136;39.010;2023-04-06T04:46:31;12.62;66.25
65396;HTU21D;52004;45.136;39.010;2023-04-06T04:48:58;12.59;66.26
65396;HTU21D;52004;45.136;39.010;2023-04-06T04:51:25;12.62;66.30
65396;HTU21D;52004;45.136;39.010;2023-04-06T04:54:10;12.58;66.33
65396;HTU21D;52004;45.136;39.010;2023-04-06T04:56:36;12.59;66.42
65396;HTU21D;52004;45.136;39.010;2023-04-06T04:59:12;12.62;66.43
65396;HTU21D;52004;45.136;39.010;2023-04-06T05:01:41;12.64;66.46
65396;HTU21D;52004;45.136;39.010;2023-04-06T05:04:06;12.64;66.43
65396;HTU21D;52004;45.136;39.010;2023-04-06T05:06:33;12.62;66.45
65396;HTU21D;52004;45.136;39.010;2023-04-06T05:08:59;12.62;66.51
65396;HTU21D;52004;45.136;39.010;2023-04-06T05:11:28;0.00;66.57
65396;HTU21D;52004;45.136;39.010;2023-04-06T05:13:58;12.62;66.60
65396;HTU21D;52004;45.136;39.010;2023-04-06T05:16:25;12.65;66.60
65396;HTU21D;52004;45.136;39.010;2023-04-06T05:18:51;12.67;66.57
65396;HTU21D;52004;45.136;39.010;2023-04-06T05:21:18;12.71;66.59
65396;HTU21D;52004;45.136;39.010;2023-04-06T05:23:54;12.74;66.57
65396;HTU21D;52004;45.136;39.010;2023-04-06T05:26:21;12.77;66.54
65396;HTU21D;52004;45.136;39.010;2023-04-06T05:28:49;12.80;66.53
65396;HTU21D;52004;45.136;39.010;2023-04-06T05:31:16;0.00;66.53
65396;HTU21D;52004;45.136;39.010;2023-04-06T05:33:47;12.85;66.48
65396;HTU21D;52004;45.136;39.010;2023-04-06T05:36:16;12.84;66.50
65396;HTU21D;52004;45.136;39.010;2023-04-06T05:38:45;0.00;66.53
65396;HTU21D;52004;45.136;39.010;2023-04-06T05:41:37;12.84;66.49
65396;HTU21D;52004;45.136;39.010;2023-04-06T05:44:03;12.81;66.54
65396;HTU21D;52004;45.136;39.010;2023-04-06T05:46:30;12.79;66.57
65396;HTU21D;52004;45.136;39.010;2023-04-06T05:48:58;12.77;66.64
65396;HTU21D;52004;45.136;39.010;2023-04-06T05:51:28;12.77;66.68
65396;HTU21D;52004;45.136;39.010;2023-04-06T05:53:54;12.77;66.72
65396;HTU21D;52004;45.136;39.010;2023-04-06T05:56:20;12.77;66.76
65396;HTU21D;52004;45.136;39.010;2023-04-06T05:58:46;12.79;66.77
65396;HTU21D;52004;45.136;39.010;2023-04-06T06:01:16;12.80;66.77
65396;HTU21D;52004;45.136;39.010;2023-04-06T06:03:45;12.84;66.84
65396;HTU21D;52004;45.136;39.010;2023-04-06T06:06:11;0.00;66.83
65396;HTU21D;52004;45.136;39.010;2023-04-06T06:08:48;12.87;66.87
65396;HTU21D;52004;45.136;39.010;2023-04-06T06:11:16;12.89;66.94
65396;HTU21D;52004;45.136;39.010;2023-04-06T06:13:42;12.91;66.98
65396;HTU21D;52004;45.136;39.010;2023-04-06T06:16:11;12.97;67.03
65396;HTU21D;52004;45.136;39.010;2023-04-06T06:18:42;0.00;66.97
65396;HTU21D;52004;45.136;39.010;2023-04-06T06:21:09;13.06;66.90
65396;HTU21D;52004;45.136;39.010;2023-04-06T06:23:35;13.07;66.88
65396;HTU21D;52004;45.136;39.010;2023-04-06T06:26:01;13.09;66.91
65396;HTU21D;52004;45.136;39.010;2023-04-06T06:28:28;13.08;66.87
65396;HTU21D;52004;45.136;39.010;2023-04-06T06:30:55;13.07;66.81
65396;HTU21D;52004;45.136;39.010;2023-04-06T06:33:23;13.07;66.92
65396;HTU21D;52004;45.136;39.010;2023-04-06T06:35:52;13.08;66.83
65396;HTU21D;52004;45.136;39.010;2023-04-06T06:38:18;13.09;66.91
65396;HTU21D;52004;45.136;39.010;2023-04-06T06:40:45;0.00;66.88
65396;HTU21D;52004;45.136;39.010;2023-04-06T06:43:12;13.11;66.91
65396;HTU21D;52004;45.136;39.010;2023-04-06T06:45:53;13.14;66.90
65396;HTU21D;52004;45.136;39.010;2023-04-06T06:48:19;13.15;66.88
65396;HTU21D;52004;45.136;39.010;2023-04-06T06:50:47;13.18;66.96
65396;HTU21D;52004;45.136;39.010;2023-04-06T06:53:12;13.22;66.85
65396;HTU21D;52004;45.136;39.010;2023-04-06T06:56:04;13.20;66.91
65396;HTU21D;52004;45.136;39.010;2023-04-06T06:58:30;13.22;66.86
65396;HTU21D;52004;45.136;39.010;2023-04-06T07:00:57;13.22;66.85
65396;HTU21D;52004;45.136;39.010;2023-04-06T07:03:23;0.00;66.81
65396;HTU21D;52004;45.136;39.010;2023-04-06T07:05:49;13.24;66.78
65396;HTU21D;52004;45.136;39.010;2023-04-06T07:08:22;13.21;66.76
65396;HTU21D;52004;45.136;39.010;2023-04-06T07:10:49;13.19;66.75
65396;HTU21D;52004;45.136;39.010;2023-04-06T07:13:18;13.17;66.75
65396;HTU21D;52004;45.136;39.010;2023-04-06T07:15:49;13.15;66.79
65396;HTU21D;52004;45.136;39.010;2023-04-06T07:18:15;13.12;66.86
65396;HTU21D;52004;45.136;39.010;2023-04-06T07:20:42;13.14;66.89
65396;HTU21D;52004;45.136;39.010;2023-04-06T07:23:08;13.16;66.91
65396;HTU21D;52004;45.136;39.010;2023-04-06T07:25:34;13.17;66.92
65396;HTU21D;52004;45.136;39.010;2023-04-06T07:28:02;13.20;66.90
65396;HTU21D;52004;45.136;39.010;2023-04-06T07:30:28;13.22;66.90
65396;HTU21D;52004;45.136;39.010;2023-04-06T07:32:55;13.22;66.91
65396;HTU21D;52004;45.136;39.010;2023-04-06T07:35:23;13.20;66.88
65396;HTU21D;52004;45.136;39.010;2023-04-06T07:37:49;13.20;66.92
65396;HTU21D;52004;45.136;39.010;2023-04-06T07:40:15;13.18;66.94
65396;HTU21D;52004;45.136;39.010;2023-04-06T07:42:42;13.18;67.01
65396;HTU21D;52004;45.136;39.010;2023-04-06T07:45:09;13.19;67.01
65396;HTU21D;52004;45.136;39.010;2023-04-06T07:47:36;13.22;67.01
65396;HTU21D;52004;45.136;39.010;2023-04-06T07:50:03;13.23;67.00
65396;HTU21D;52004;45.136;39.010;2023-04-06T07:52:30;13.23;66.98
65396;HTU21D;52004;45.136;39.010;2023-04-06T07:54:58;13.25;67.01
65396;HTU21D;52004;45.136;39.010;2023-04-06T07:57:24;13.26;67.07
65396;HTU21D;52004;45.136;39.010;2023-04-06T07:59:50;13.29;67.13
65396;HTU21D;52004;45.136;39.010;2023-04-06T08:02:16;13.33;67.10
65396;HTU21D;52004;45.136;39.010;2023-04-06T08:04:43;13.35;67.09
65396;HTU21D;52004;45.136;39.010;2023-04-06T08:07:09;13.37;67.15
65396;HTU21D;52004;45.136;39.010;2023-04-06T08:09:34;13.38;67.12
65396;HTU21D;52004;45.136;39.010;2023-04-06T08:12:00;13.38;67.12
65396;HTU21D;52004;45.136;39.010;2023-04-06T08:14:26;13.39;67.10
65396;HTU21D;52004;45.136;39.010;2023-04-06T08:16:52;13.37;67.07
65396;HTU21D;52004;45.136;39.010;2023-04-06T08:19:18;13.36;67.10
65396;HTU21D;52004;45.136;39.010;2023-04-06T08:21:45;0.00;67.11
65396;HTU21D;52004;45.136;39.010;2023-04-06T08:24:11;13.36;67.14
65396;HTU21D;52004;45.136;39.010;2023-04-06T08:26:37;13.37;67.22
65396;HTU21D;52004;45.136;39.010;2023-04-06T08:29:03;13.40;67.23
65396;HTU21D;52004;45.136;39.010;2023-04-06T08:31:30;13.43;67.19
65396;HTU21D;52004;45.136;39.010;2023-04-06T08:33:56;0.00;67.16
65396;HTU21D;52004;45.136;39.010;2023-04-06T08:36:22;13.44;67.14
65396;HTU21D;52004;45.136;39.010;2023-04-06T08:38:48;13.43;67.13
65396;HTU21D;52004;45.136;39.010;2023-04-06T08:41:15;13.40;67.11
65396;HTU21D;52004;45.136;39.010;2023-04-06T08:43:43;13.40;67.11
65396;HTU21D;52004;45.136;39.010;2023-04-06T08:46:10;13.38;67.15
65396;HTU21D;52004;45.136;39.010;2023-04-06T08:48:38;13.38;67.15
65396;HTU21D;52004;45.136;39.010;2023-04-06T08:51:04;0.00;67.12
65396;HTU21D;52004;45.136;39.010;2023-04-06T08:53:30;13.37;67.16
65396;HTU21D;52004;45.136;39.010;2023-04-06T08:55:56;13.36;67.14
65396;HTU21D;52004;45.136;39.010;2023-04-06T08:58:23;13.33;67.14
65396;HTU21D;52004;45.136;39.010;2023-04-06T09:00:49;13.31;67.17
65396;HTU21D;52004;45.136;39.010;2023-04-06T09:03:16;13.30;67.21
65396;HTU21D;52004;45.136;39.010;2023-04-06T09:05:43;13.31;67.26
65396;HTU21D;52004;45.136;39.010;2023-04-06T09:08:09;13.32;67.30
65396;HTU21D;52004;45.136;39.010;2023-04-06T09:10:35;13.33;67.32
65396;HTU21D;52004;45.136;39.010;2023-04-06T09:13:02;13.36;67.33
65396;HTU21D;52004;45.136;39.010;2023-04-06T09:15:28;13.39;67.33
65396;HTU21D;52004;45.136;39.010;2023-04-06T09:17:54;13.40;67.30
65396;HTU21D;52004;45.136;39.010;2023-04-06T09:20:23;13.43;67.31
65396;HTU21D;52004;45.136;39.010;2023-04-06T09:22:51;13.45;67.33
65396;HTU21D;52004;45.136;39.010;2023-04-06T09:25:18;13.46;67.32
65396;HTU21D;52004;45.136;39.010;2023-04-06T09:27:45;13.47;67.32
65396;HTU21D;52004;45.136;39.010;2023-04-06T09:30:11;13.48;67.33
65396;HTU21D;52004;45.136;39.010;2023-04-06T09:35:12;13.49;67.38
65396;HTU21D;52004;45.136;39.010;2023-04-06T09:37:38;13.51;67.38
65396;HTU21D;52004;45.136;39.010;2023-04-06T09:40:04;13.51;67.41
65396;HTU21D;52004;45.136;39.010;2023-04-06T09:42:31;13.54;67.40
65396;HTU21D;52004;45.136;39.010;2023-04-06T09:44:57;13.56;67.46
65396;HTU21D;52004;45.136;39.010;2023-04-06T09:47:23;13.60;67.46
65396;HTU21D;52004;45.136;39.010;2023-04-06T09:49:50;13.63;67.44
65396;HTU21D;52004;45.136;39.010;2023-04-06T09:52:16;13.64;67.46
65396;HTU21D;52004;45.136;39.010;2023-04-06T09:54:42;13.67;67.43
65396;HTU21D;52004;45.136;39.010;2023-04-06T09:57:52;13.66;67.37
65396;HTU21D;52004;45.136;39.010;2023-04-06T10:00:07;13.64;67.38
65396;HTU21D;52004;45.136;39.010;2023-04-06T10:08:13;13.65;67.55
65396;HTU21D;52004;45.136;39.010;2023-04-06T10:10:40;13.70;67.59
65396;HTU21D;52004;45.136;39.010;2023-04-06T10:13:06;13.77;67.65
65396;HTU21D;52004;45.136;39.010;2023-04-06T10:15:33;13.86;67.62
65396;HTU21D;52004;45.136;39.010;2023-04-06T10:17:58;13.93;67.61
65396;HTU21D;52004;45.136;39.010;2023-04-06T10:20:29;14.03;67.63
65396;HTU21D;52004;45.136;39.010;2023-04-06T10:23:01;14.10;67.52
65396;HTU21D;52004;45.136;39.010;2023-04-06T10:25:31;14.13;67.46
65396;HTU21D;52004;45.136;39.010;2023-04-06T10:28:07;14.19;67.44
65396;HTU21D;52004;45.136;39.010;2023-04-06T10:30:34;14.23;67.45
65396;HTU21D;52004;45.136;39.010;2023-04-06T10:33:01;14.25;67.42
65396;HTU21D;52004;45.136;39.010;2023-04-06T10:35:37;14.28;67.45
65396;HTU21D;52004;45.136;39.010;2023-04-06T10:38:06;0.00;67.34
65396;HTU21D;52004;45.136;39.010;2023-04-06T10:40:37;14.30;67.30
65396;HTU21D;52004;45.136;39.010;2023-04-06T10:43:07;14.28;67.22
65396;HTU21D;52004;45.136;39.010;2023-04-06T10:45:33;14.23;67.18
65396;HTU21D;52004;45.136;39.010;2023-04-06T10:48:00;14.14;67.14
65396;HTU21D;52004;45.136;39.010;2023-04-06T10:50:26;14.05;67.04
65396;HTU21D;52004;45.136;39.010;2023-04-06T10:52:58;0.00;67.11
65396;HTU21D;52004;45.136;39.010;2023-04-06T10:55:25;13.76;67.19
65396;HTU21D;52004;45.136;39.010;2023-04-06T10:57:51;13.64;67.39
65396;HTU21D;52004;45.136;39.010;2023-04-06T11:00:17;0.00;67.49
65396;HTU21D;52004;45.136;39.010;2023-04-06T11:02:43;13.54;67.55
65396;HTU21D;52004;45.136;39.010;2023-04-06T11:05:10;13.52;67.61
65396;HTU21D;52004;45.136;39.010;2023-04-06T11:07:37;13.52;67.59
65396;HTU21D;52004;45.136;39.010;2023-04-06T11:10:03;13.51;67.59
65396;HTU21D;52004;45.136;39.010;2023-04-06T11:12:29;13.49;67.62
65396;HTU21D;52004;45.136;39.010;2023-04-06T11:14:56;13.50;67.68
65396;HTU21D;52004;45.136;39.010;2023-04-06T11:17:30;13.53;67.75
65396;HTU21D;52004;45.136;39.010;2023-04-06T11:19:56;13.63;67.85
65396;HTU21D;52004;45.136;39.010;2023-04-06T11:22:25;13.75;67.89
65396;HTU21D;52004;45.136;39.010;2023-04-06T11:24:51;13.86;67.85
65396;HTU21D;52004;45.136;39.010;2023-04-06T11:27:17;13.94;67.69
65396;HTU21D;52004;45.136;39.010;2023-04-06T11:29:43;14.00;67.64
65396;HTU21D;52004;45.136;39.010;2023-04-06T11:32:11;14.07;67.61
65396;HTU21D;52004;45.136;39.010;2023-04-06T11:34:45;14.14;67.57
65396;HTU21D;52004;45.136;39.010;2023-04-06T11:37:12;14.19;67.58
65396;HTU21D;52004;45.136;39.010;2023-04-06T11:39:39;14.24;67.55
65396;HTU21D;52004;45.136;39.010;2023-04-06T11:42:06;14.30;67.58
65396;HTU21D;52004;45.136;39.010;2023-04-06T11:47:01;14.47;67.58
65396;HTU21D;52004;45.136;39.010;2023-04-06T11:49:28;14.50;67.46
65396;HTU21D;52004;45.136;39.010;2023-04-06T11:51:55;14.49;67.33
65396;HTU21D;52004;45.136;39.010;2023-04-06T11:54:37;14.47;67.24
65396;HTU21D;52004;45.136;39.010;2023-04-06T11:57:03;14.41;67.21
65396;HTU21D;52004;45.136;39.010;2023-04-06T11:59:29;14.40;67.28
65396;HTU21D;52004;45.136;39.010;2023-04-06T12:01:56;14.35;67.27
65396;HTU21D;52004;45.136;39.010;2023-04-06T12:04:22;14.32;67.32
65396;HTU21D;52004;45.136;39.010;2023-04-06T12:07:13;14.29;67.36
65396;HTU21D;52004;45.136;39.010;2023-04-06T12:10:04;14.26;67.33
65396;HTU21D;52004;45.136;39.010;2023-04-06T12:12:54;14.26;67.43
65396;HTU21D;52004;45.136;39.010;2023-04-06T12:15:20;14.26;67.39
65396;HTU21D;52004;45.136;39.010;2023-04-06T12:17:47;14.23;67.37
65396;HTU21D;52004;45.136;39.010;2023-04-06T12:20:38;14.22;67.36
65396;HTU21D;52004;45.136;39.010;2023-04-06T12:23:03;14.20;67.35
65396;HTU21D;52004;45.136;39.010;2023-04-06T12:25:29;14.19;67.31
65396;HTU21D;52004;45.136;39.010;2023-04-06T12:27:55;14.13;67.29
65396;HTU21D;52004;45.136;39.010;2023-04-06T12:30:21;14.09;67.27
65396;HTU21D;52004;45.136;39.010;2023-04-06T12:32:47;14.04;67.27
65396;HTU21D;52004;45.136;39.010;2023-04-06T12:35:13;13.97;67.29
65396;HTU21D;52004;45.136;39.010;2023-04-06T12:37:43;13.93;67.41
65396;HTU21D;52004;45.136;39.010;2023-04-06T12:40:09;13.93;67.43
65396;HTU21D;52004;45.136;39.010;2023-04-06T12:42:38;13.89;67.37
65396;HTU21D;52004;45.136;39.010;2023-04-06T12:45:04;13.83;67.39
65396;HTU21D;52004;45.136;39.010;2023-04-06T12:47:30;13.81;67.44
65396;HTU21D;52004;45.136;39.010;2023-04-06T12:49:56;13.82;67.47
65396;HTU21D;52004;45.136;39.010;2023-04-06T12:52:22;13.83;67.51
65396;HTU21D;52004;45.136;39.010;2023-04-06T12:54:48;13.83;67.45
65396;HTU21D;52004;45.136;39.010;2023-04-06T12:57:14;13.82;67.42
65396;HTU21D;52004;45.136;39.010;2023-04-06T12:59:43;13.80;67.44
65396;HTU21D;52004;45.136;39.010;2023-04-06T13:02:09;13.79;67.41
65396;HTU21D;52004;45.136;39.010;2023-04-06T13:04:35;13.78;67.34
65396;HTU21D;52004;45.136;39.010;2023-04-06T13:07:01;13.73;67.30
65396;HTU21D;52004;45.136;39.010;2023-04-06T13:09:27;13.67;67.29
65396;HTU21D;52004;45.136;39.010;2023-04-06T13:11:53;13.60;67.34
65396;HTU21D;52004;45.136;39.010;2023-04-06T13:14:19;13.53;67.41
65396;HTU21D;52004;45.136;39.010;2023-04-06T13:16:45;13.48;67.47
65396;HTU21D;52004;45.136;39.010;2023-04-06T13:19:11;13.45;67.48
65396;HTU21D;52004;45.136;39.010;2023-04-06T13:21:38;13.41;67.49
65396;HTU21D;52004;45.136;39.010;2023-04-06T13:24:04;13.36;67.52
65396;HTU21D;52004;45.136;39.010;2023-04-06T13:26:31;13.33;67.52
65396;HTU21D;52004;45.136;39.010;2023-04-06T13:28:57;13.31;67.55
65396;HTU21D;52004;45.136;39.010;2023-04-06T13:31:22;13.29;67.59
65396;HTU21D;52004;45.136;39.010;2023-04-06T13:33:48;13.27;67.62
65396;HTU21D;52004;45.136;39.010;2023-04-06T13:36:14;13.30;67.63
65396;HTU21D;52004;45.136;39.010;2023-04-06T13:38:41;13.29;67.63
65396;HTU21D;52004;45.136;39.010;2023-04-06T13:41:07;13.27;67.61
65396;HTU21D;52004;45.136;39.010;2023-04-06T13:43:33;13.29;67.68
65396;HTU21D;52004;45.136;39.010;2023-04-06T13:46:25;13.33;67.79
65396;HTU21D;52004;45.136;39.010;2023-04-06T13:48:53;13.39;67.74
65396;HTU21D;52004;45.136;39.010;2023-04-06T13:51:19;13.39;67.62
65396;HTU21D;52004;45.136;39.010;2023-04-06T13:53:45;13.37;67.61
65396;HTU21D;52004;45.136;39.010;2023-04-06T13:56:11;13.37;67.60
65396;HTU21D;52004;45.136;39.010;2023-04-06T13:58:37;13.37;67.63
65396;HTU21D;52004;45.136;39.010;2023-04-06T14:01:04;13.37;67.61
65396;HTU21D;52004;45.136;39.010;2023-04-06T14:03:50;0.00;67.63
65396;HTU21D;52004;45.136;39.010;2023-04-06T14:06:16;13.39;67.68
65396;HTU21D;52004;45.136;39.010;2023-04-06T14:08:42;13.45;67.71
65396;HTU21D;52004;45.136;39.010;2023-04-06T14:11:11;13.46;67.65
65396;HTU21D;52004;45.136;39.010;2023-04-06T14:13:37;13.48;67.58
65396;HTU21D;52004;45.136;39.010;2023-04-06T14:16:03;13.47;67.58
65396;HTU21D;52004;45.136;39.010;2023-04-06T14:18:30;13.48;67.54
65396;HTU21D;52004;45.136;39.010;2023-04-06T14:20:57;13.47;67.53
65396;HTU21D;52004;45.136;39.010;2023-04-06T14:23:23;0.00;67.52
65396;HTU21D;52004;45.136;39.010;2023-04-06T14:25:51;0.00;67.49
65396;HTU21D;52004;45.136;39.010;2023-04-06T14:28:17;0.00;67.51
65396;HTU21D;52004;45.136;39.010;2023-04-06T14:30:43;13.37;67.49
65396;HTU21D;52004;45.136;39.010;2023-04-06T14:33:09;13.32;67.50
65396;HTU21D;52004;45.136;39.010;2023-04-06T14:35:37;13.29;67.54
65396;HTU21D;52004;45.136;39.010;2023-04-06T14:38:03;13.24;67.55
65396;HTU21D;52004;45.136;39.010;2023-04-06T14:40:30;13.21;67.59
65396;HTU21D;52004;45.136;39.010;2023-04-06T14:42:55;13.19;67.63
65396;HTU21D;52004;45.136;39.010;2023-04-06T14:45:22;13.18;67.65
65396;HTU21D;52004;45.136;39.010;2023-04-06T14:47:58;13.15;67.63
65396;HTU21D;52004;45.136;39.010;2023-04-06T14:50:24;13.12;67.67
65396;HTU21D;52004;45.136;39.010;2023-04-06T14:52:50;13.11;67.67
65396;HTU21D;52004;45.136;39.010;2023-04-06T14:55:16;13.10;67.68
65396;HTU21D;52004;45.136;39.010;2023-04-06T14:57:42;13.11;67.67
65396;HTU21D;52004;45.136;39.010;2023-04-06T15:00:08;13.08;67.65
65396;HTU21D;52004;45.136;39.010;2023-04-06T15:02:35;0.00;67.66
65396;HTU21D;52004;45.136;39.010;2023-04-06T15:05:01;13.04;67.66
65396;HTU21D;52004;45.136;39.010;2023-04-06T15:07:26;13.03;67.65
65396;HTU21D;52004;45.136;39.010;2023-04-06T15:09:52;0.00;67.64
65396;HTU21D;52004;45.136;39.010;2023-04-06T15:12:18;12.97;67.69
65396;HTU21D;52004;45.136;39.010;2023-04-06T15:14:44;12.97;67.71
65396;HTU21D;52004;45.136;39.010;2023-04-06T15:17:10;12.96;67.69
65396;HTU21D;52004;45.136;39.010;2023-04-06T15:19:36;0.00;67.66
65396;HTU21D;52004;45.136;39.010;2023-04-06T15:22:02;0.00;67.68